sensor_id;sensor_type;location;lat;lon;timestamp;P1;durP1;ratioP1;P2;durP2;ratioP2
38715;SDS011;24833;49.324;8.694;2024-03-02T00:01:16;8.68;;;6.65;;
38715;SDS011;24833;49.324;8.694;2024-03-02T00:03:43;8.43;;;6.63;;
38715;SDS011;24833;49.324;8.694;2024-03-02T00:06:10;8.65;;;6.38;;
38715;SDS011;24833;49.324;8.694;2024-03-02T00:08:38;8.80;;;6.57;;
38715;SDS011;24833;49.324;8.694;2024-03-02T00:11:05;9.68;;;6.40;;
38715;SDS011;24833;49.324;8.694;2024-03-02T00:13:32;8.60;;;6.13;;
38715;SDS011;24833;49.324;8.694;2024-03-02T00:16:00;7.45;;;6.32;;
38715;SDS011;24833;49.324;8.694;2024-03-02T00:18:31;8.68;;;5.97;;
38715;SDS011;24833;49.324;8.694;2024-03-02T00:21:01;8.50;;;6.50;;
38715;SDS011;24833;49.324;8.694;2024-03-02T00:23:32;7.55;;;6.38;;
38715;SDS011;24833;49.324;8.694;2024-03-02T00:26:01;8.52;;;6.80;;
38715;SDS011;24833;49.324;8.694;2024-03-02T00:28:29;8.43;;;7.00;;
38715;SDS011;24833;49.324;8.694;2024-03-02T00:31:03;8.90;;;6.93;;
38715;SDS011;24833;49.324;8.694;2024-03-02T00:33:35;9.30;;;6.60;;
38715;SDS011;24833;49.324;8.694;2024-03-02T00:36:26;9.80;;;6.43;;
38715;SDS011;24833;49.324;8.694;2024-03-02T00:38:54;9.50;;;7.28;;
38715;SDS011;24833;49.324;8.694;2024-03-02T00:41:25;8.90;;;7.18;;
38715;SDS011;24833;49.324;8.694;2024-03-02T00:44:02;10.10;;;7.03;;
38715;SDS011;24833;49.324;8.694;2024-03-02T00:46:35;8.93;;;7.13;;
38715;SDS011;24833;49.324;8.694;2024-03-02T00:49:04;9.38;;;7.38;;
38715;SDS011;24833;49.324;8.694;2024-03-02T00:51:38;12.30;;;7.15;;
38715;SDS011;24833;49.324;8.694;2024-03-02T00:54:07;9.30;;;6.78;;
38715;SDS011;24833;49.324;8.694;2024-03-02T00:56:35;9.98;;;7.50;;
38715;SDS011;24833;49.324;8.694;2024-03-02T00:59:02;9.88;;;7.63;;
38715;SDS011;24833;49.324;8.694;2024-03-02T01:01:29;9.25;;;7.13;;
38715;SDS011;24833;49.324;8.694;2024-03-02T01:03:56;9.77;;;8.15;;
38715;SDS011;24833;49.324;8.694;2024-03-02T01:06:23;8.55;;;7.15;;
38715;SDS011;24833;49.324;8.694;2024-03-02T01:08:50;10.18;;;7.70;;
38715;SDS011;24833;49.324;8.694;2024-03-02T01:11:19;11.15;;;8.00;;
38715;SDS011;24833;49.324;8.694;2024-03-02T01:13:49;8.43;;;7.40;;
38715;SDS011;24833;49.324;8.694;2024-03-02T01:16:16;10.75;;;7.38;;
38715;SDS011;24833;49.324;8.694;2024-03-02T01:18:44;12.10;;;7.88;;
38715;SDS011;24833;49.324;8.694;2024-03-02T01:21:11;12.30;;;7.28;;
38715;SDS011;24833;49.324;8.694;2024-03-02T01:23:38;11.02;;;7.97;;
38715;SDS011;24833;49.324;8.694;2024-03-02T01:26:05;10.80;;;7.90;;
38715;SDS011;24833;49.324;8.694;2024-03-02T01:28:33;9.40;;;7.72;;
38715;SDS011;24833;49.324;8.694;2024-03-02T01:31:00;8.95;;;7.15;;
38715;SDS011;24833;49.324;8.694;2024-03-02T01:33:28;9.80;;;7.28;;
38715;SDS011;24833;49.324;8.694;2024-03-02T01:35:55;9.05;;;7.00;;
38715;SDS011;24833;49.324;8.694;2024-03-02T01:38:22;8.57;;;6.60;;
38715;SDS011;24833;49.324;8.694;2024-03-02T01:40:49;9.88;;;7.25;;
38715;SDS011;24833;49.324;8.694;2024-03-02T01:43:18;7.47;;;5.95;;
38715;SDS011;24833;49.324;8.694;2024-03-02T01:45:45;8.88;;;6.90;;
38715;SDS011;24833;49.324;8.694;2024-03-02T01:48:12;7.03;;;5.45;;
38715;SDS011;24833;49.324;8.694;2024-03-02T01:50:39;8.00;;;6.05;;
38715;SDS011;24833;49.324;8.694;2024-03-02T01:53:06;8.55;;;6.07;;
38715;SDS011;24833;49.324;8.694;2024-03-02T01:55:36;6.57;;;5.45;;
38715;SDS011;24833;49.324;8.694;2024-03-02T01:58:03;9.00;;;7.00;;
38715;SDS011;24833;49.324;8.694;2024-03-02T02:00:30;8.57;;;6.55;;
38715;SDS011;24833;49.324;8.694;2024-03-02T02:02:58;8.73;;;6.70;;
38715;SDS011;24833;49.324;8.694;2024-03-02T02:05:25;9.13;;;6.82;;
38715;SDS011;24833;49.324;8.694;2024-03-02T02:07:52;10.00;;;7.57;;
38715;SDS011;24833;49.324;8.694;2024-03-02T02:10:19;9.02;;;6.82;;
38715;SDS011;24833;49.324;8.694;2024-03-02T02:12:46;9.23;;;6.38;;
38715;SDS011;24833;49.324;8.694;2024-03-02T02:15:26;8.85;;;6.25;;
38715;SDS011;24833;49.324;8.694;2024-03-02T02:17:58;5.80;;;5.20;;
38715;SDS011;24833;49.324;8.694;2024-03-02T02:20:26;10.63;;;6.40;;
38715;SDS011;24833;49.324;8.694;2024-03-02T02:22:54;8.68;;;6.85;;
38715;SDS011;24833;49.324;8.694;2024-03-02T02:25:32;7.05;;;5.82;;
38715;SDS011;24833;49.324;8.694;2024-03-02T02:27:59;7.15;;;6.18;;
38715;SDS011;24833;49.324;8.694;2024-03-02T02:30:27;8.68;;;5.90;;
38715;SDS011;24833;49.324;8.694;2024-03-02T02:32:57;8.20;;;6.70;;
38715;SDS011;24833;49.324;8.694;2024-03-02T02:35:25;9.80;;;5.85;;
38715;SDS011;24833;49.324;8.694;2024-03-02T02:37:53;7.72;;;6.35;;
38715;SDS011;24833;49.324;8.694;2024-03-02T02:40:21;7.18;;;6.20;;
38715;SDS011;24833;49.324;8.694;2024-03-02T02:42:49;7.00;;;6.22;;
38715;SDS011;24833;49.324;8.694;2024-03-02T02:45:18;9.05;;;6.40;;
38715;SDS011;24833;49.324;8.694;2024-03-02T02:47:45;6.88;;;6.05;;
38715;SDS011;24833;49.324;8.694;2024-03-02T02:50:13;8.93;;;6.78;;
38715;SDS011;24833;49.324;8.694;2024-03-02T02:52:41;7.97;;;6.50;;
38715;SDS011;24833;49.324;8.694;2024-03-02T02:55:09;8.52;;;7.22;;
38715;SDS011;24833;49.324;8.694;2024-03-02T02:57:39;9.80;;;7.28;;
38715;SDS011;24833;49.324;8.694;2024-03-02T03:00:09;10.15;;;7.15;;
38715;SDS011;24833;49.324;8.694;2024-03-02T03:02:44;9.02;;;6.93;;
38715;SDS011;24833;49.324;8.694;2024-03-02T03:05:15;8.35;;;6.72;;
38715;SDS011;24833;49.324;8.694;2024-03-02T03:07:43;10.60;;;7.07;;
38715;SDS011;24833;49.324;8.694;2024-03-02T03:10:16;7.80;;;6.97;;
38715;SDS011;24833;49.324;8.694;2024-03-02T03:12:43;8.77;;;6.97;;
38715;SDS011;24833;49.324;8.694;2024-03-02T03:15:11;8.95;;;7.05;;
38715;SDS011;24833;49.324;8.694;2024-03-02T03:17:39;8.95;;;7.45;;
38715;SDS011;24833;49.324;8.694;2024-03-02T03:20:06;7.65;;;6.22;;
38715;SDS011;24833;49.324;8.694;2024-03-02T03:22:37;9.05;;;6.78;;
38715;SDS011;24833;49.324;8.694;2024-03-02T03:25:05;8.98;;;7.60;;
38715;SDS011;24833;49.324;8.694;2024-03-02T03:27:35;7.60;;;6.30;;
38715;SDS011;24833;49.324;8.694;2024-03-02T03:30:02;9.20;;;7.00;;
38715;SDS011;24833;49.324;8.694;2024-03-02T03:32:29;9.35;;;7.28;;
38715;SDS011;24833;49.324;8.694;2024-03-02T03:34:56;8.50;;;6.90;;
38715;SDS011;24833;49.324;8.694;2024-03-02T03:37:23;7.22;;;6.15;;
38715;SDS011;24833;49.324;8.694;2024-03-02T03:39:53;9.43;;;7.07;;
38715;SDS011;24833;49.324;8.694;2024-03-02T03:42:20;8.23;;;6.82;;
38715;SDS011;24833;49.324;8.694;2024-03-02T03:44:47;9.82;;;6.63;;
38715;SDS011;24833;49.324;8.694;2024-03-02T03:47:14;9.43;;;7.63;;
38715;SDS011;24833;49.324;8.694;2024-03-02T03:49:41;10.40;;;7.82;;
38715;SDS011;24833;49.324;8.694;2024-03-02T03:52:08;10.20;;;7.72;;
38715;SDS011;24833;49.324;8.694;2024-03-02T03:54:36;10.05;;;7.38;;
38715;SDS011;24833;49.324;8.694;2024-03-02T03:57:04;10.25;;;8.50;;
38715;SDS011;24833;49.324;8.694;2024-03-02T03:59:32;9.48;;;7.85;;
38715;SDS011;24833;49.324;8.694;2024-03-02T04:01:59;10.40;;;8.25;;
38715;SDS011;24833;49.324;8.694;2024-03-02T04:04:26;10.75;;;8.35;;
38715;SDS011;24833;49.324;8.694;2024-03-02T04:06:53;8.98;;;7.55;;
38715;SDS011;24833;49.324;8.694;2024-03-02T04:09:21;9.27;;;7.80;;
38715;SDS011;24833;49.324;8.694;2024-03-02T04:11:48;8.73;;;7.05;;
38715;SDS011;24833;49.324;8.694;2024-03-02T04:14:15;9.15;;;7.53;;
38715;SDS011;24833;49.324;8.694;2024-03-02T04:16:42;9.10;;;7.78;;
38715;SDS011;24833;49.324;8.694;2024-03-02T04:19:09;9.20;;;7.30;;
38715;SDS011;24833;49.324;8.694;2024-03-02T04:21:36;8.73;;;7.38;;
38715;SDS011;24833;49.324;8.694;2024-03-02T04:24:03;9.27;;;7.80;;
38715;SDS011;24833;49.324;8.694;2024-03-02T04:26:31;9.32;;;7.28;;
38715;SDS011;24833;49.324;8.694;2024-03-02T04:28:58;11.20;;;7.60;;
38715;SDS011;24833;49.324;8.694;2024-03-02T04:31:25;11.52;;;7.70;;
38715;SDS011;24833;49.324;8.694;2024-03-02T04:33:52;9.05;;;7.30;;
38715;SDS011;24833;49.324;8.694;2024-03-02T04:36:20;9.13;;;7.47;;
38715;SDS011;24833;49.324;8.694;2024-03-02T04:38:47;9.30;;;7.13;;
38715;SDS011;24833;49.324;8.694;2024-03-02T04:41:15;7.88;;;6.82;;
38715;SDS011;24833;49.324;8.694;2024-03-02T04:43:42;8.48;;;6.72;;
38715;SDS011;24833;49.324;8.694;2024-03-02T04:46:09;7.72;;;6.85;;
38715;SDS011;24833;49.324;8.694;2024-03-02T04:48:37;9.18;;;7.30;;
38715;SDS011;24833;49.324;8.694;2024-03-02T04:51:04;8.18;;;6.63;;
38715;SDS011;24833;49.324;8.694;2024-03-02T04:53:31;8.55;;;7.13;;
38715;SDS011;24833;49.324;8.694;2024-03-02T04:55:58;9.18;;;7.15;;
38715;SDS011;24833;49.324;8.694;2024-03-02T04:58:43;9.43;;;7.38;;
38715;SDS011;24833;49.324;8.694;2024-03-02T05:01:10;9.23;;;7.32;;
38715;SDS011;24833;49.324;8.694;2024-03-02T05:03:38;8.95;;;7.38;;
38715;SDS011;24833;49.324;8.694;2024-03-02T05:06:05;10.75;;;6.90;;
38715;SDS011;24833;49.324;8.694;2024-03-02T05:08:32;8.05;;;6.22;;
38715;SDS011;24833;49.324;8.694;2024-03-02T05:10:59;8.80;;;6.10;;
38715;SDS011;24833;49.324;8.694;2024-03-02T05:13:46;8.55;;;6.78;;
38715;SDS011;24833;49.324;8.694;2024-03-02T05:16:13;8.98;;;7.00;;
38715;SDS011;24833;49.324;8.694;2024-03-02T05:18:40;7.68;;;6.47;;
38715;SDS011;24833;49.324;8.694;2024-03-02T05:21:07;7.43;;;6.30;;
38715;SDS011;24833;49.324;8.694;2024-03-02T05:23:34;8.98;;;7.00;;
38715;SDS011;24833;49.324;8.694;2024-03-02T05:26:01;9.82;;;6.70;;
38715;SDS011;24833;49.324;8.694;2024-03-02T05:28:29;11.63;;;8.35;;
38715;SDS011;24833;49.324;8.694;2024-03-02T05:30:56;8.30;;;6.97;;
38715;SDS011;24833;49.324;8.694;2024-03-02T05:33:23;9.70;;;7.18;;
38715;SDS011;24833;49.324;8.694;2024-03-02T05:35:50;7.97;;;6.60;;
38715;SDS011;24833;49.324;8.694;2024-03-02T05:38:17;8.50;;;6.50;;
38715;SDS011;24833;49.324;8.694;2024-03-02T05:40:44;7.45;;;6.45;;
38715;SDS011;24833;49.324;8.694;2024-03-02T05:43:11;8.65;;;6.65;;
38715;SDS011;24833;49.324;8.694;2024-03-02T05:45:38;8.75;;;6.80;;
38715;SDS011;24833;49.324;8.694;2024-03-02T05:48:06;8.38;;;6.65;;
38715;SDS011;24833;49.324;8.694;2024-03-02T05:50:34;9.48;;;7.22;;
38715;SDS011;24833;49.324;8.694;2024-03-02T05:53:01;7.78;;;6.68;;
38715;SDS011;24833;49.324;8.694;2024-03-02T05:55:28;8.55;;;6.85;;
38715;SDS011;24833;49.324;8.694;2024-03-02T05:57:55;9.18;;;7.38;;
38715;SDS011;24833;49.324;8.694;2024-03-02T06:00:45;9.30;;;6.80;;
38715;SDS011;24833;49.324;8.694;2024-03-02T06:03:13;7.68;;;6.57;;
38715;SDS011;24833;49.324;8.694;2024-03-02T06:05:40;9.20;;;7.40;;
38715;SDS011;24833;49.324;8.694;2024-03-02T06:08:07;8.77;;;7.07;;
38715;SDS011;24833;49.324;8.694;2024-03-02T06:10:34;9.77;;;7.80;;
38715;SDS011;24833;49.324;8.694;2024-03-02T06:13:01;9.25;;;7.13;;
38715;SDS011;24833;49.324;8.694;2024-03-02T06:15:28;8.52;;;7.63;;
38715;SDS011;24833;49.324;8.694;2024-03-02T06:17:55;10.35;;;7.43;;
38715;SDS011;24833;49.324;8.694;2024-03-02T06:20:22;9.98;;;7.57;;
38715;SDS011;24833;49.324;8.694;2024-03-02T06:22:50;10.05;;;7.60;;
38715;SDS011;24833;49.324;8.694;2024-03-02T06:25:17;9.32;;;7.90;;
38715;SDS011;24833;49.324;8.694;2024-03-02T06:27:44;9.90;;;7.43;;
38715;SDS011;24833;49.324;8.694;2024-03-02T06:30:11;7.85;;;6.90;;
38715;SDS011;24833;49.324;8.694;2024-03-02T06:32:38;8.05;;;6.57;;
38715;SDS011;24833;49.324;8.694;2024-03-02T06:35:05;9.88;;;6.85;;
38715;SDS011;24833;49.324;8.694;2024-03-02T06:37:37;7.78;;;6.90;;
38715;SDS011;24833;49.324;8.694;2024-03-02T06:40:06;9.55;;;7.07;;
38715;SDS011;24833;49.324;8.694;2024-03-02T06:42:37;11.23;;;7.85;;
38715;SDS011;24833;49.324;8.694;2024-03-02T06:45:04;9.20;;;7.50;;
38715;SDS011;24833;49.324;8.694;2024-03-02T06:47:32;9.30;;;7.50;;
38715;SDS011;24833;49.324;8.694;2024-03-02T06:49:59;8.38;;;6.85;;
38715;SDS011;24833;49.324;8.694;2024-03-02T06:52:26;9.18;;;7.18;;
38715;SDS011;24833;49.324;8.694;2024-03-02T06:54:53;8.63;;;6.38;;
38715;SDS011;24833;49.324;8.694;2024-03-02T06:57:20;8.60;;;7.00;;
38715;SDS011;24833;49.324;8.694;2024-03-02T06:59:47;9.05;;;6.93;;
38715;SDS011;24833;49.324;8.694;2024-03-02T07:02:17;8.77;;;6.82;;
38715;SDS011;24833;49.324;8.694;2024-03-02T07:04:44;8.20;;;6.28;;
38715;SDS011;24833;49.324;8.694;2024-03-02T07:07:15;8.38;;;6.32;;
38715;SDS011;24833;49.324;8.694;2024-03-02T07:09:42;8.80;;;6.25;;
38715;SDS011;24833;49.324;8.694;2024-03-02T07:12:09;7.70;;;6.80;;
38715;SDS011;24833;49.324;8.694;2024-03-02T07:14:36;10.10;;;7.38;;
38715;SDS011;24833;49.324;8.694;2024-03-02T07:17:22;8.23;;;7.05;;
38715;SDS011;24833;49.324;8.694;2024-03-02T07:19:53;10.85;;;7.85;;
38715;SDS011;24833;49.324;8.694;2024-03-02T07:22:33;8.15;;;6.97;;
38715;SDS011;24833;49.324;8.694;2024-03-02T07:25:00;8.88;;;7.28;;
38715;SDS011;24833;49.324;8.694;2024-03-02T07:27:27;9.85;;;7.03;;
38715;SDS011;24833;49.324;8.694;2024-03-02T07:29:54;9.85;;;7.35;;
38715;SDS011;24833;49.324;8.694;2024-03-02T07:32:22;10.70;;;7.00;;
38715;SDS011;24833;49.324;8.694;2024-03-02T07:34:49;10.40;;;7.40;;
38715;SDS011;24833;49.324;8.694;2024-03-02T07:37:19;9.18;;;6.55;;
38715;SDS011;24833;49.324;8.694;2024-03-02T07:39:50;8.55;;;6.60;;
38715;SDS011;24833;49.324;8.694;2024-03-02T07:42:18;10.05;;;7.55;;
38715;SDS011;24833;49.324;8.694;2024-03-02T07:44:45;8.57;;;6.72;;
38715;SDS011;24833;49.324;8.694;2024-03-02T07:47:12;7.43;;;6.50;;
38715;SDS011;24833;49.324;8.694;2024-03-02T07:49:39;9.35;;;7.05;;
38715;SDS011;24833;49.324;8.694;2024-03-02T07:52:07;8.50;;;6.93;;
38715;SDS011;24833;49.324;8.694;2024-03-02T07:54:34;9.57;;;7.38;;
38715;SDS011;24833;49.324;8.694;2024-03-02T07:57:01;8.60;;;7.00;;
38715;SDS011;24833;49.324;8.694;2024-03-02T07:59:28;8.75;;;7.35;;
38715;SDS011;24833;49.324;8.694;2024-03-02T08:01:55;9.90;;;7.13;;
38715;SDS011;24833;49.324;8.694;2024-03-02T08:04:22;8.80;;;6.80;;
38715;SDS011;24833;49.324;8.694;2024-03-02T08:06:50;9.57;;;7.65;;
38715;SDS011;24833;49.324;8.694;2024-03-02T08:09:17;7.68;;;6.57;;
38715;SDS011;24833;49.324;8.694;2024-03-02T08:11:44;10.45;;;6.88;;
38715;SDS011;24833;49.324;8.694;2024-03-02T08:14:11;11.75;;;7.82;;
38715;SDS011;24833;49.324;8.694;2024-03-02T08:16:38;8.45;;;7.18;;
38715;SDS011;24833;49.324;8.694;2024-03-02T08:19:06;8.57;;;6.70;;
38715;SDS011;24833;49.324;8.694;2024-03-02T08:21:35;11.07;;;6.93;;
38715;SDS011;24833;49.324;8.694;2024-03-02T08:24:02;9.05;;;7.05;;
38715;SDS011;24833;49.324;8.694;2024-03-02T08:26:30;9.30;;;6.85;;
38715;SDS011;24833;49.324;8.694;2024-03-02T08:28:58;8.27;;;7.00;;
38715;SDS011;24833;49.324;8.694;2024-03-02T08:31:27;9.27;;;6.82;;
38715;SDS011;24833;49.324;8.694;2024-03-02T08:33:55;8.13;;;6.50;;
38715;SDS011;24833;49.324;8.694;2024-03-02T08:36:23;8.60;;;6.50;;
38715;SDS011;24833;49.324;8.694;2024-03-02T08:38:50;8.65;;;6.90;;
38715;SDS011;24833;49.324;8.694;2024-03-02T08:41:17;8.45;;;5.90;;
38715;SDS011;24833;49.324;8.694;2024-03-02T08:43:45;8.05;;;6.43;;
38715;SDS011;24833;49.324;8.694;2024-03-02T08:46:12;7.70;;;6.57;;
38715;SDS011;24833;49.324;8.694;2024-03-02T08:48:41;10.05;;;6.65;;
38715;SDS011;24833;49.324;8.694;2024-03-02T08:51:08;8.38;;;6.47;;
38715;SDS011;24833;49.324;8.694;2024-03-02T08:53:36;7.55;;;6.10;;
38715;SDS011;24833;49.324;8.694;2024-03-02T08:56:05;6.50;;;5.55;;
38715;SDS011;24833;49.324;8.694;2024-03-02T08:58:32;6.85;;;6.13;;
38715;SDS011;24833;49.324;8.694;2024-03-02T09:00:59;7.97;;;6.07;;
38715;SDS011;24833;49.324;8.694;2024-03-02T09:03:27;7.15;;;6.13;;
38715;SDS011;24833;49.324;8.694;2024-03-02T09:05:54;7.25;;;5.40;;
38715;SDS011;24833;49.324;8.694;2024-03-02T09:08:21;7.43;;;6.45;;
38715;SDS011;24833;49.324;8.694;2024-03-02T09:10:48;6.15;;;5.10;;
38715;SDS011;24833;49.324;8.694;2024-03-02T09:13:32;6.95;;;5.97;;
38715;SDS011;24833;49.324;8.694;2024-03-02T09:16:00;7.78;;;6.45;;
38715;SDS011;24833;49.324;8.694;2024-03-02T09:18:27;9.15;;;6.57;;
38715;SDS011;24833;49.324;8.694;2024-03-02T09:20:54;7.32;;;5.75;;
38715;SDS011;24833;49.324;8.694;2024-03-02T09:23:21;6.47;;;5.78;;
38715;SDS011;24833;49.324;8.694;2024-03-02T09:25:48;7.03;;;5.95;;
38715;SDS011;24833;49.324;8.694;2024-03-02T09:28:15;7.03;;;5.68;;
38715;SDS011;24833;49.324;8.694;2024-03-02T09:30:43;6.15;;;5.53;;
38715;SDS011;24833;49.324;8.694;2024-03-02T09:33:10;7.05;;;5.85;;
38715;SDS011;24833;49.324;8.694;2024-03-02T09:35:39;7.30;;;5.77;;
38715;SDS011;24833;49.324;8.694;2024-03-02T09:38:07;5.95;;;5.35;;
38715;SDS011;24833;49.324;8.694;2024-03-02T09:40:34;7.63;;;5.80;;
38715;SDS011;24833;49.324;8.694;2024-03-02T09:43:02;6.63;;;5.15;;
38715;SDS011;24833;49.324;8.694;2024-03-02T09:45:30;6.75;;;5.70;;
38715;SDS011;24833;49.324;8.694;2024-03-02T09:47:57;8.02;;;5.60;;
38715;SDS011;24833;49.324;8.694;2024-03-02T09:50:24;5.13;;;4.50;;
38715;SDS011;24833;49.324;8.694;2024-03-02T09:52:52;5.72;;;5.10;;
38715;SDS011;24833;49.324;8.694;2024-03-02T09:55:19;6.25;;;5.53;;
38715;SDS011;24833;49.324;8.694;2024-03-02T09:57:47;6.57;;;5.03;;
38715;SDS011;24833;49.324;8.694;2024-03-02T10:00:16;5.45;;;4.70;;
38715;SDS011;24833;49.324;8.694;2024-03-02T10:02:43;6.00;;;4.85;;
38715;SDS011;24833;49.324;8.694;2024-03-02T10:05:11;5.22;;;4.57;;
38715;SDS011;24833;49.324;8.694;2024-03-02T10:07:38;6.15;;;4.43;;
38715;SDS011;24833;49.324;8.694;2024-03-02T10:10:13;7.22;;;4.95;;
38715;SDS011;24833;49.324;8.694;2024-03-02T10:12:41;5.82;;;4.53;;
38715;SDS011;24833;49.324;8.694;2024-03-02T10:15:08;5.70;;;4.68;;
38715;SDS011;24833;49.324;8.694;2024-03-02T10:17:36;6.07;;;5.15;;
38715;SDS011;24833;49.324;8.694;2024-03-02T10:20:22;6.40;;;5.00;;
38715;SDS011;24833;49.324;8.694;2024-03-02T10:22:51;4.57;;;4.15;;
38715;SDS011;24833;49.324;8.694;2024-03-02T10:25:28;6.35;;;4.55;;
38715;SDS011;24833;49.324;8.694;2024-03-02T10:28:03;5.07;;;4.10;;
38715;SDS011;24833;49.324;8.694;2024-03-02T10:30:34;5.57;;;4.18;;
38715;SDS011;24833;49.324;8.694;2024-03-02T10:33:02;4.93;;;4.20;;
38715;SDS011;24833;49.324;8.694;2024-03-02T10:35:32;5.80;;;4.60;;
38715;SDS011;24833;49.324;8.694;2024-03-02T10:38:05;5.10;;;4.43;;
38715;SDS011;24833;49.324;8.694;2024-03-02T10:40:33;6.22;;;5.05;;
38715;SDS011;24833;49.324;8.694;2024-03-02T10:43:01;5.50;;;4.97;;
38715;SDS011;24833;49.324;8.694;2024-03-02T10:45:31;5.03;;;4.43;;
38715;SDS011;24833;49.324;8.694;2024-03-02T10:48:02;5.50;;;4.67;;
38715;SDS011;24833;49.324;8.694;2024-03-02T10:50:32;5.25;;;4.63;;
38715;SDS011;24833;49.324;8.694;2024-03-02T10:53:00;4.82;;;4.13;;
38715;SDS011;24833;49.324;8.694;2024-03-02T10:55:27;5.82;;;4.30;;
38715;SDS011;24833;49.324;8.694;2024-03-02T10:57:55;5.25;;;4.68;;
38715;SDS011;24833;49.324;8.694;2024-03-02T11:00:28;4.40;;;4.00;;
38715;SDS011;24833;49.324;8.694;2024-03-02T11:03:06;4.40;;;3.90;;
38715;SDS011;24833;49.324;8.694;2024-03-02T11:05:37;5.75;;;3.80;;
38715;SDS011;24833;49.324;8.694;2024-03-02T11:08:13;4.57;;;4.05;;
38715;SDS011;24833;49.324;8.694;2024-03-02T11:10:48;4.60;;;4.10;;
38715;SDS011;24833;49.324;8.694;2024-03-02T11:13:36;4.07;;;3.67;;
38715;SDS011;24833;49.324;8.694;2024-03-02T11:19:22;3.33;;;3.03;;
38715;SDS011;24833;49.324;8.694;2024-03-02T11:21:51;4.10;;;3.60;;
38715;SDS011;24833;49.324;8.694;2024-03-02T11:26:54;6.30;;;3.63;;
38715;SDS011;24833;49.324;8.694;2024-03-02T11:32:03;4.05;;;3.60;;
38715;SDS011;24833;49.324;8.694;2024-03-02T11:34:52;3.83;;;3.45;;
38715;SDS011;24833;49.324;8.694;2024-03-02T11:37:22;3.85;;;3.55;;
38715;SDS011;24833;49.324;8.694;2024-03-02T11:39:51;3.78;;;3.10;;
38715;SDS011;24833;49.324;8.694;2024-03-02T11:42:18;3.58;;;2.85;;
38715;SDS011;24833;49.324;8.694;2024-03-02T11:44:46;3.53;;;3.05;;
38715;SDS011;24833;49.324;8.694;2024-03-02T11:47:16;3.55;;;2.67;;
38715;SDS011;24833;49.324;8.694;2024-03-02T11:49:50;2.90;;;2.58;;
38715;SDS011;24833;49.324;8.694;2024-03-02T11:52:18;2.28;;;2.08;;
38715;SDS011;24833;49.324;8.694;2024-03-02T11:54:46;1.90;;;1.80;;
38715;SDS011;24833;49.324;8.694;2024-03-02T11:57:16;2.42;;;2.05;;
38715;SDS011;24833;49.324;8.694;2024-03-02T11:59:49;1.98;;;1.88;;
38715;SDS011;24833;49.324;8.694;2024-03-02T12:02:26;2.33;;;1.75;;
38715;SDS011;24833;49.324;8.694;2024-03-02T12:04:53;2.30;;;2.10;;
38715;SDS011;24833;49.324;8.694;2024-03-02T12:07:20;2.00;;;1.77;;
38715;SDS011;24833;49.324;8.694;2024-03-02T12:09:59;2.03;;;1.92;;
38715;SDS011;24833;49.324;8.694;2024-03-02T12:12:29;2.35;;;2.13;;
38715;SDS011;24833;49.324;8.694;2024-03-02T12:14:57;1.80;;;1.70;;
38715;SDS011;24833;49.324;8.694;2024-03-02T12:17:26;2.63;;;1.55;;
38715;SDS011;24833;49.324;8.694;2024-03-02T12:19:55;2.38;;;1.90;;
38715;SDS011;24833;49.324;8.694;2024-03-02T12:22:22;1.83;;;1.73;;
38715;SDS011;24833;49.324;8.694;2024-03-02T12:24:52;1.60;;;1.50;;
38715;SDS011;24833;49.324;8.694;2024-03-02T12:27:19;2.75;;;1.83;;
38715;SDS011;24833;49.324;8.694;2024-03-02T12:29:48;2.67;;;1.75;;
38715;SDS011;24833;49.324;8.694;2024-03-02T12:32:15;1.70;;;1.60;;
38715;SDS011;24833;49.324;8.694;2024-03-02T12:34:42;1.70;;;1.60;;
38715;SDS011;24833;49.324;8.694;2024-03-02T12:37:12;2.28;;;1.58;;
38715;SDS011;24833;49.324;8.694;2024-03-02T12:39:43;1.65;;;1.55;;
38715;SDS011;24833;49.324;8.694;2024-03-02T12:42:12;1.88;;;1.73;;
38715;SDS011;24833;49.324;8.694;2024-03-02T12:44:39;2.50;;;1.98;;
38715;SDS011;24833;49.324;8.694;2024-03-02T12:47:06;1.65;;;1.55;;
38715;SDS011;24833;49.324;8.694;2024-03-02T12:49:33;1.70;;;1.60;;
38715;SDS011;24833;49.324;8.694;2024-03-02T12:52:11;2.17;;;1.83;;
38715;SDS011;24833;49.324;8.694;2024-03-02T12:54:39;1.75;;;1.65;;
38715;SDS011;24833;49.324;8.694;2024-03-02T12:57:07;2.30;;;2.03;;
38715;SDS011;24833;49.324;8.694;2024-03-02T12:59:34;1.90;;;1.80;;
38715;SDS011;24833;49.324;8.694;2024-03-02T13:02:01;1.73;;;1.63;;
38715;SDS011;24833;49.324;8.694;2024-03-02T13:04:28;1.63;;;1.45;;
38715;SDS011;24833;49.324;8.694;2024-03-02T13:06:56;1.65;;;1.55;;
38715;SDS011;24833;49.324;8.694;2024-03-02T13:09:24;2.03;;;1.50;;
38715;SDS011;24833;49.324;8.694;2024-03-02T13:11:51;1.60;;;1.35;;
38715;SDS011;24833;49.324;8.694;2024-03-02T13:14:21;1.88;;;1.35;;
38715;SDS011;24833;49.324;8.694;2024-03-02T13:16:51;1.40;;;1.30;;
38715;SDS011;24833;49.324;8.694;2024-03-02T13:19:19;1.40;;;1.30;;
38715;SDS011;24833;49.324;8.694;2024-03-02T13:21:46;1.17;;;1.08;;
38715;SDS011;24833;49.324;8.694;2024-03-02T13:24:13;1.20;;;1.10;;
38715;SDS011;24833;49.324;8.694;2024-03-02T13:26:40;1.00;;;1.00;;
38715;SDS011;24833;49.324;8.694;2024-03-02T13:29:08;1.98;;;1.00;;
38715;SDS011;24833;49.324;8.694;2024-03-02T13:31:35;1.40;;;1.20;;
38715;SDS011;24833;49.324;8.694;2024-03-02T13:34:02;1.33;;;1.23;;
38715;SDS011;24833;49.324;8.694;2024-03-02T13:36:29;1.20;;;1.10;;
38715;SDS011;24833;49.324;8.694;2024-03-02T13:38:56;0.93;;;0.90;;
38715;SDS011;24833;49.324;8.694;2024-03-02T13:41:24;1.00;;;1.00;;
38715;SDS011;24833;49.324;8.694;2024-03-02T13:43:51;1.02;;;0.93;;
38715;SDS011;24833;49.324;8.694;2024-03-02T13:46:20;1.48;;;1.20;;
38715;SDS011;24833;49.324;8.694;2024-03-02T13:48:48;0.90;;;0.90;;
38715;SDS011;24833;49.324;8.694;2024-03-02T13:51:15;0.85;;;0.85;;
38715;SDS011;24833;49.324;8.694;2024-03-02T13:53:42;0.73;;;0.73;;
38715;SDS011;24833;49.324;8.694;2024-03-02T13:56:09;0.88;;;0.85;;
38715;SDS011;24833;49.324;8.694;2024-03-02T13:58:36;0.70;;;0.70;;
38715;SDS011;24833;49.324;8.694;2024-03-02T14:01:04;3.00;;;0.88;;
38715;SDS011;24833;49.324;8.694;2024-03-02T14:03:32;1.63;;;0.75;;
38715;SDS011;24833;49.324;8.694;2024-03-02T14:05:59;0.80;;;0.80;;
38715;SDS011;24833;49.324;8.694;2024-03-02T14:08:26;0.73;;;0.73;;
38715;SDS011;24833;49.324;8.694;2024-03-02T14:10:54;0.52;;;0.52;;
38715;SDS011;24833;49.324;8.694;2024-03-02T14:13:22;0.93;;;0.65;;
38715;SDS011;24833;49.324;8.694;2024-03-02T14:15:49;1.20;;;0.60;;
38715;SDS011;24833;49.324;8.694;2024-03-02T14:18:16;0.60;;;0.60;;
38715;SDS011;24833;49.324;8.694;2024-03-02T14:20:43;0.60;;;0.60;;
38715;SDS011;24833;49.324;8.694;2024-03-02T14:23:12;0.68;;;0.65;;
38715;SDS011;24833;49.324;8.694;2024-03-02T14:25:39;0.82;;;0.60;;
38715;SDS011;24833;49.324;8.694;2024-03-02T14:28:06;0.80;;;0.68;;
38715;SDS011;24833;49.324;8.694;2024-03-02T14:30:53;1.15;;;0.90;;
38715;SDS011;24833;49.324;8.694;2024-03-02T14:33:21;0.70;;;0.70;;
38715;SDS011;24833;49.324;8.694;2024-03-02T14:35:48;0.43;;;0.43;;
38715;SDS011;24833;49.324;8.694;2024-03-02T14:38:15;1.00;;;0.90;;
38715;SDS011;24833;49.324;8.694;2024-03-02T14:40:42;0.57;;;0.55;;
38715;SDS011;24833;49.324;8.694;2024-03-02T14:43:09;0.80;;;0.70;;
38715;SDS011;24833;49.324;8.694;2024-03-02T14:45:36;0.52;;;0.52;;
38715;SDS011;24833;49.324;8.694;2024-03-02T14:48:04;0.63;;;0.63;;
38715;SDS011;24833;49.324;8.694;2024-03-02T14:50:31;0.77;;;0.70;;
38715;SDS011;24833;49.324;8.694;2024-03-02T14:52:59;0.73;;;0.73;;
38715;SDS011;24833;49.324;8.694;2024-03-02T14:55:27;0.70;;;0.70;;
38715;SDS011;24833;49.324;8.694;2024-03-02T14:57:54;0.73;;;0.60;;
38715;SDS011;24833;49.324;8.694;2024-03-02T15:00:22;0.50;;;0.50;;
38715;SDS011;24833;49.324;8.694;2024-03-02T15:02:49;0.40;;;0.40;;